createdAt,value
2019-05-19T00:00:17.817Z,14.17
2019-05-19T00:02:46.989Z,9.53
2019-05-19T00:05:16.094Z,7.77
2019-05-19T00:07:45.004Z,9.70
2019-05-19T00:10:14.156Z,8.97
2019-05-19T00:12:43.059Z,8.67
2019-05-19T00:15:12.036Z,9.33
2019-05-19T00:17:41.087Z,11.10
2019-05-19T00:20:10.049Z,9.60
2019-05-19T00:22:39.024Z,9.30
2019-05-19T00:25:08.022Z,7.80
2019-05-19T00:27:36.980Z,11.20
2019-05-19T00:30:06.923Z,8.20
2019-05-19T00:32:35.896Z,8.17
2019-05-19T00:35:05.524Z,6.70
2019-05-19T00:37:34.483Z,4.77
2019-05-19T00:40:04.289Z,6.80
2019-05-19T00:42:33.180Z,6.20
2019-05-19T00:45:02.346Z,6.77
2019-05-19T00:47:31.526Z,7.90
2019-05-19T00:50:00.502Z,6.60
2019-05-19T00:52:29.510Z,8.77
2019-05-19T00:54:58.433Z,8.50
2019-05-19T00:57:27.914Z,8.77
2019-05-19T00:59:57.073Z,6.87
2019-05-19T01:02:26.178Z,7.77
2019-05-19T01:04:56.042Z,7.50
2019-05-19T01:07:24.936Z,7.83
2019-05-19T01:09:53.857Z,7.93
2019-05-19T01:12:22.746Z,12.47
2019-05-19T01:14:51.636Z,10.30
2019-05-19T01:17:20.571Z,11.20
2019-05-19T01:19:56.132Z,14.33
2019-05-19T01:22:20.045Z,12.97
2019-05-19T01:24:48.985Z,6.97
2019-05-19T01:27:17.870Z,7.97
2019-05-19T01:29:46.768Z,9.17
2019-05-19T01:32:15.683Z,5.83
2019-05-19T01:34:44.649Z,9.90
2019-05-19T01:37:13.557Z,10.13
2019-05-19T01:39:42.475Z,7.40
2019-05-19T01:42:11.431Z,6.90
2019-05-19T01:44:40.359Z,5.93
2019-05-19T01:47:10.302Z,7.53
2019-05-19T01:49:39.256Z,6.93
2019-05-19T01:52:08.139Z,6.73
2019-05-19T01:54:37.048Z,5.00
2019-05-19T01:57:05.936Z,6.03
2019-05-19T01:59:34.893Z,6.00
2019-05-19T02:02:03.880Z,4.53
2019-05-19T02:04:33.911Z,4.57
2019-05-19T02:07:02.840Z,4.87
2019-05-19T02:09:31.802Z,7.63
2019-05-19T02:12:00.698Z,7.93
2019-05-19T02:14:29.617Z,7.50
2019-05-19T02:16:58.569Z,4.67
2019-05-19T02:19:27.454Z,5.40
2019-05-19T02:21:56.364Z,4.47
2019-05-19T02:24:25.250Z,6.27
2019-05-19T02:26:54.206Z,5.63
2019-05-19T02:29:23.116Z,4.93
2019-05-19T02:31:52.001Z,5.93
2019-05-19T02:34:20.907Z,6.60
2019-05-19T02:36:49.799Z,7.47
2019-05-19T02:39:18.682Z,9.27
2019-05-19T02:41:48.473Z,5.70
2019-05-19T02:44:17.524Z,8.13
2019-05-19T02:46:46.485Z,5.77
2019-05-19T02:49:16.213Z,6.10
2019-05-19T02:51:46.469Z,6.57
2019-05-19T02:54:15.497Z,10.47
2019-05-19T02:56:45.948Z,7.70
2019-05-19T02:59:15.111Z,5.80
2019-05-19T03:02:01.919Z,6.50
2019-05-19T03:04:30.939Z,9.00
2019-05-19T03:06:59.893Z,6.30
2019-05-19T03:09:28.797Z,7.27
2019-05-19T03:11:57.682Z,7.80
2019-05-19T03:14:26.667Z,8.57
2019-05-19T03:16:55.624Z,7.53
2019-05-19T03:19:24.531Z,6.10
2019-05-19T03:21:53.491Z,6.60
2019-05-19T03:24:22.404Z,7.93
2019-05-19T03:26:51.287Z,7.93
2019-05-19T03:29:24.560Z,6.37
2019-05-19T03:32:00.932Z,5.90
2019-05-19T03:34:29.919Z,6.37
2019-05-19T03:36:58.855Z,5.80
2019-05-19T03:39:27.776Z,7.73
2019-05-19T03:41:56.666Z,7.27
2019-05-19T03:44:27.103Z,7.40
2019-05-19T03:46:56.038Z,8.67
2019-05-19T03:49:24.917Z,6.83
2019-05-19T03:51:53.809Z,7.87
2019-05-19T03:54:22.714Z,8.07
2019-05-19T03:56:51.641Z,8.33
2019-05-19T03:59:20.527Z,8.37
2019-05-19T04:01:49.416Z,8.90
2019-05-19T04:04:18.316Z,7.07
2019-05-19T04:06:47.196Z,7.23
2019-05-19T04:09:17.553Z,7.03
2019-05-19T04:11:47.753Z,6.57
2019-05-19T04:14:16.659Z,6.90
2019-05-19T04:16:45.674Z,6.87
2019-05-19T04:19:14.597Z,6.47
2019-05-19T04:21:48.759Z,7.27
2019-05-19T04:24:14.146Z,7.07
2019-05-19T04:26:43.056Z,10.60
2019-05-19T04:29:11.941Z,10.77
2019-05-19T04:31:40.905Z,8.57
2019-05-19T04:34:09.812Z,8.40
2019-05-19T04:36:38.706Z,8.50
2019-05-19T04:39:07.602Z,9.73
2019-05-19T04:41:40.032Z,8.50
2019-05-19T04:44:07.242Z,9.43
2019-05-19T04:46:36.127Z,12.07
2019-05-19T04:49:05.033Z,12.17
2019-05-19T04:51:34.998Z,10.23
2019-05-19T04:54:03.971Z,10.57
2019-05-19T04:56:32.921Z,11.20
2019-05-19T04:59:01.897Z,9.37
2019-05-19T05:01:30.796Z,12.47
2019-05-19T05:03:59.790Z,10.40
2019-05-19T05:06:28.676Z,13.63
2019-05-19T05:08:58.646Z,13.90
2019-05-19T05:11:27.549Z,16.23
2019-05-19T05:13:56.454Z,12.10
2019-05-19T05:16:25.383Z,16.47
2019-05-19T05:18:54.285Z,13.67
2019-05-19T05:21:23.184Z,16.33
2019-05-19T05:23:52.089Z,13.10
2019-05-19T05:26:20.992Z,12.43
2019-05-19T05:28:50.958Z,13.40
2019-05-19T05:31:20.062Z,15.53
2019-05-19T05:33:48.976Z,13.97
2019-05-19T05:36:19.060Z,12.73
2019-05-19T05:38:47.972Z,13.40
2019-05-19T05:41:16.882Z,12.50
2019-05-19T05:43:45.778Z,11.53
2019-05-19T05:46:14.659Z,9.57
2019-05-19T05:48:43.593Z,8.47
2019-05-19T05:51:12.477Z,9.70
2019-05-19T05:53:41.363Z,8.60
2019-05-19T05:56:10.319Z,8.47
2019-05-19T05:58:39.211Z,7.60
2019-05-19T06:01:08.115Z,9.63
2019-05-19T06:03:37.032Z,8.63
2019-05-19T06:06:05.924Z,9.20
2019-05-19T06:08:34.810Z,10.03
2019-05-19T06:11:03.742Z,8.03
2019-05-19T06:13:32.793Z,8.67
2019-05-19T06:16:01.683Z,7.93
2019-05-19T06:18:30.603Z,9.07
2019-05-19T06:20:59.491Z,7.27
2019-05-19T06:23:28.385Z,9.53
2019-05-19T06:25:57.308Z,7.10
2019-05-19T06:28:26.194Z,9.23
2019-05-19T06:30:55.085Z,7.13
2019-05-19T06:33:24.011Z,7.67
2019-05-19T06:35:52.884Z,10.00
2019-05-19T06:38:21.767Z,8.07
2019-05-19T06:40:50.699Z,8.00
2019-05-19T06:43:19.585Z,8.63
2019-05-19T06:45:48.476Z,7.97
2019-05-19T06:48:17.398Z,7.13
2019-05-19T06:50:46.287Z,9.57
2019-05-19T06:53:15.191Z,7.70
2019-05-19T06:55:44.161Z,7.63
2019-05-19T06:58:13.073Z,8.67
2019-05-19T07:00:41.959Z,8.17
2019-05-19T07:03:10.922Z,7.83
2019-05-19T07:05:39.842Z,9.23
2019-05-19T07:08:09.702Z,7.63
2019-05-19T07:10:38.597Z,8.53
2019-05-19T07:13:07.517Z,7.40
2019-05-19T07:15:36.407Z,7.00
2019-05-19T07:18:05.311Z,6.43
2019-05-19T07:20:34.229Z,8.13
2019-05-19T07:23:03.138Z,7.00
2019-05-19T07:25:32.118Z,6.83
2019-05-19T07:28:01.041Z,7.00
2019-05-19T07:30:30.008Z,6.07
2019-05-19T07:32:58.902Z,6.37
2019-05-19T07:35:27.819Z,5.67
2019-05-19T07:37:56.713Z,7.83
2019-05-19T07:40:25.604Z,6.10
2019-05-19T07:42:55.372Z,5.33
2019-05-19T07:45:24.332Z,6.97
2019-05-19T07:47:53.239Z,7.03
2019-05-19T07:50:22.225Z,4.77
2019-05-19T07:52:51.107Z,6.77
2019-05-19T07:55:19.995Z,4.10
2019-05-19T07:57:48.910Z,5.90
2019-05-19T08:00:17.864Z,6.10
2019-05-19T08:02:46.756Z,5.67
2019-05-19T08:05:15.681Z,6.13
2019-05-19T08:07:44.602Z,4.87
2019-05-19T08:10:13.735Z,5.30
2019-05-19T08:12:42.720Z,5.50
2019-05-19T08:15:11.784Z,4.63
2019-05-19T08:17:40.747Z,4.27
2019-05-19T08:20:09.816Z,3.97
2019-05-19T08:22:38.844Z,3.60
2019-05-19T08:25:07.927Z,4.57
2019-05-19T08:27:36.815Z,5.33
2019-05-19T08:30:06.067Z,4.17
2019-05-19T08:32:35.075Z,4.70
2019-05-19T08:35:05.227Z,3.53
2019-05-19T08:37:34.116Z,5.03
2019-05-19T08:40:03.117Z,3.90
2019-05-19T08:42:32.007Z,5.20
2019-05-19T08:45:00.905Z,4.43
2019-05-19T08:47:29.888Z,4.53
2019-05-19T08:49:58.779Z,5.67
2019-05-19T08:52:27.886Z,3.20
2019-05-19T08:54:56.870Z,4.17
2019-05-19T08:57:25.848Z,3.33
2019-05-19T08:59:55.714Z,3.30
2019-05-19T09:02:24.755Z,4.43
2019-05-19T09:04:53.653Z,3.57
2019-05-19T09:07:22.550Z,4.77
2019-05-19T09:09:51.481Z,3.50
2019-05-19T09:12:20.374Z,2.90
2019-05-19T09:14:49.271Z,4.73
2019-05-19T09:17:18.190Z,5.80
2019-05-19T09:19:47.068Z,4.20
2019-05-19T09:22:17.025Z,6.47
2019-05-19T09:24:46.041Z,5.50
2019-05-19T09:27:14.934Z,4.47
2019-05-19T09:29:43.838Z,3.17
2019-05-19T09:32:12.768Z,3.50
2019-05-19T09:34:41.724Z,4.63
2019-05-19T09:37:10.617Z,8.33
2019-05-19T09:39:39.548Z,3.93
2019-05-19T09:42:08.435Z,3.80
2019-05-19T09:44:37.418Z,3.77
2019-05-19T09:47:06.410Z,4.23
2019-05-19T09:49:35.804Z,3.30
2019-05-19T09:52:05.680Z,4.07
2019-05-19T09:54:44.783Z,4.53
2019-05-19T09:57:05.194Z,3.13
2019-05-19T09:59:34.164Z,2.30
2019-05-19T10:02:03.174Z,2.27
2019-05-19T10:04:32.227Z,2.70
2019-05-19T10:07:01.556Z,4.20
2019-05-19T10:09:49.700Z,4.13
2019-05-19T10:12:18.590Z,2.13
2019-05-19T10:14:47.558Z,3.40
2019-05-19T10:17:16.490Z,2.80
2019-05-19T10:19:45.444Z,2.13
2019-05-19T10:22:14.342Z,2.10
2019-05-19T10:24:59.275Z,3.30
2019-05-19T10:27:14.061Z,2.27
2019-05-19T10:29:42.951Z,2.10
2019-05-19T10:32:11.952Z,3.83
2019-05-19T10:34:40.851Z,3.60
2019-05-19T10:37:09.728Z,2.37
2019-05-19T10:39:38.661Z,3.20
2019-05-19T10:42:07.766Z,3.43
2019-05-19T10:44:36.657Z,3.43
2019-05-19T10:47:05.648Z,3.93
2019-05-19T10:49:34.547Z,2.27
2019-05-19T10:52:03.501Z,2.17
2019-05-19T10:54:32.457Z,3.23
2019-05-19T10:57:01.349Z,2.07
2019-05-19T10:59:30.313Z,2.17
2019-05-19T11:01:59.263Z,2.50
2019-05-19T11:04:28.218Z,2.10
2019-05-19T11:06:57.180Z,3.27
2019-05-19T11:09:26.203Z,2.47
2019-05-19T11:11:55.084Z,3.90
2019-05-19T11:14:24.078Z,2.10
2019-05-19T11:16:53.008Z,6.13
2019-05-19T11:19:21.957Z,2.20
2019-05-19T11:21:50.856Z,3.57
2019-05-19T11:24:19.818Z,1.60
2019-05-19T11:26:48.706Z,1.70
2019-05-19T11:29:17.593Z,1.50
2019-05-19T11:31:46.591Z,2.10
2019-05-19T11:34:15.488Z,1.83
2019-05-19T11:36:44.374Z,4.50
2019-05-19T11:39:13.440Z,2.10
2019-05-19T11:41:42.330Z,3.00
2019-05-19T11:44:11.211Z,2.87
2019-05-19T11:46:40.144Z,1.80
2019-05-19T11:49:09.050Z,3.43
2019-05-19T11:51:38.004Z,2.33
2019-05-19T11:54:06.938Z,2.70
2019-05-19T11:56:35.927Z,2.23
2019-05-19T11:59:05.037Z,1.30
2019-05-19T12:01:34.007Z,3.50
2019-05-19T12:04:03.010Z,2.00
2019-05-19T12:06:39.479Z,2.13
2019-05-19T12:09:04.156Z,1.90
2019-05-19T12:11:33.313Z,1.57
2019-05-19T12:14:02.198Z,2.90
2019-05-19T12:16:31.189Z,1.53
2019-05-19T12:19:00.097Z,3.17
2019-05-19T12:21:29.114Z,3.10
2019-05-19T12:23:58.032Z,2.37
2019-05-19T12:26:26.933Z,2.20
2019-05-19T12:28:55.881Z,1.83
2019-05-19T12:31:24.825Z,1.27
2019-05-19T12:33:54.671Z,2.10
2019-05-19T12:36:23.641Z,1.60
2019-05-19T12:38:52.557Z,1.57
2019-05-19T12:41:21.521Z,2.97
2019-05-19T12:43:50.417Z,1.30
2019-05-19T12:46:22.254Z,2.20
2019-05-19T12:48:51.131Z,0.87
2019-05-19T12:51:20.036Z,1.43
2019-05-19T12:53:50.028Z,3.83
2019-05-19T12:56:18.916Z,1.23
2019-05-19T12:58:47.810Z,0.93
2019-05-19T13:01:16.741Z,1.30
2019-05-19T13:03:45.617Z,1.47
2019-05-19T13:06:14.586Z,2.33
2019-05-19T13:08:43.522Z,3.27
2019-05-19T13:11:13.454Z,2.03
2019-05-19T13:13:42.350Z,1.13
2019-05-19T13:16:11.352Z,1.20
2019-05-19T13:18:40.250Z,1.10
2019-05-19T13:21:09.202Z,1.57
2019-05-19T13:23:38.200Z,1.07
2019-05-19T13:26:07.190Z,2.70
2019-05-19T13:28:36.078Z,1.93
2019-05-19T13:31:05.015Z,3.47
2019-05-19T13:33:33.894Z,3.13
2019-05-19T13:36:02.788Z,1.17
2019-05-19T13:38:31.710Z,1.40
2019-05-19T13:41:00.602Z,1.30
2019-05-19T13:43:29.535Z,1.83
2019-05-19T13:45:58.507Z,2.10
2019-05-19T13:48:27.604Z,1.00
2019-05-19T13:50:57.565Z,1.67
2019-05-19T13:53:26.526Z,3.43
2019-05-19T13:55:55.395Z,2.00
2019-05-19T13:58:24.370Z,1.50
2019-05-19T14:00:53.288Z,2.07
2019-05-19T14:03:22.246Z,4.17
2019-05-19T14:05:51.146Z,2.03
2019-05-19T14:08:20.098Z,5.97
2019-05-19T14:10:48.982Z,1.40
2019-05-19T14:13:17.879Z,1.30
2019-05-19T14:15:46.832Z,2.00
2019-05-19T14:18:15.721Z,1.20
2019-05-19T14:20:44.617Z,1.37
2019-05-19T14:23:13.543Z,1.10
2019-05-19T14:25:42.427Z,1.20
2019-05-19T14:28:11.325Z,1.73
2019-05-19T14:30:40.249Z,1.27
2019-05-19T14:33:09.215Z,1.63
2019-05-19T14:35:38.104Z,1.40
2019-05-19T14:38:07.025Z,1.27
2019-05-19T14:40:35.919Z,1.67
2019-05-19T14:43:05.089Z,1.30
2019-05-19T14:45:34.027Z,1.43
2019-05-19T14:48:02.986Z,1.37
2019-05-19T14:50:31.905Z,2.47
2019-05-19T14:53:01.929Z,1.30
2019-05-19T14:55:30.834Z,1.93
2019-05-19T14:57:59.719Z,1.43
2019-05-19T15:00:28.637Z,2.40
2019-05-19T15:02:57.558Z,1.40
2019-05-19T15:05:26.502Z,1.17
2019-05-19T15:07:55.475Z,4.10
2019-05-19T15:10:24.459Z,0.90
2019-05-19T15:12:53.347Z,3.30
2019-05-19T15:15:22.253Z,1.70
2019-05-19T15:17:51.158Z,1.70
2019-05-19T15:20:20.052Z,1.17
2019-05-19T15:22:48.944Z,1.17
2019-05-19T15:25:17.931Z,1.10
2019-05-19T15:27:59.235Z,2.97
2019-05-19T15:30:17.899Z,1.47
2019-05-19T15:32:46.828Z,3.17
2019-05-19T15:35:15.899Z,1.43
2019-05-19T15:37:44.771Z,1.20
2019-05-19T15:40:13.773Z,1.13
2019-05-19T15:42:42.729Z,1.27
2019-05-19T15:45:11.996Z,1.07
2019-05-19T15:47:40.989Z,0.90
2019-05-19T15:50:09.937Z,2.03
2019-05-19T15:52:38.814Z,0.87
2019-05-19T15:55:07.810Z,1.10
2019-05-19T15:57:36.709Z,0.90
2019-05-19T16:00:06.259Z,0.93
2019-05-19T16:02:35.620Z,1.23
2019-05-19T16:05:07.675Z,1.37
2019-05-19T16:07:36.666Z,1.30
2019-05-19T16:10:07.179Z,1.13
2019-05-19T16:12:36.262Z,1.03
2019-05-19T16:15:05.849Z,1.17
2019-05-19T16:17:34.809Z,4.03
2019-05-19T16:20:05.075Z,1.10
2019-05-19T16:22:34.060Z,1.10
2019-05-19T16:25:03.730Z,1.20
2019-05-19T16:27:32.616Z,1.17
2019-05-19T16:30:01.533Z,1.20
2019-05-19T16:32:30.602Z,1.23
2019-05-19T16:34:59.577Z,2.53
2019-05-19T16:37:28.559Z,1.63
2019-05-19T16:39:57.615Z,1.70
2019-05-19T16:42:27.276Z,2.30
2019-05-19T16:44:56.261Z,3.37
2019-05-19T16:47:25.227Z,4.97
2019-05-19T16:49:54.111Z,1.50
2019-05-19T16:52:23.024Z,4.63
2019-05-19T16:55:09.672Z,1.30
2019-05-19T16:57:38.589Z,3.20
2019-05-19T17:00:07.649Z,3.00
2019-05-19T17:02:36.929Z,2.93
2019-05-19T17:05:06.381Z,1.67
2019-05-19T17:07:35.330Z,1.50
2019-05-19T17:10:05.964Z,2.70
2019-05-19T17:12:35.152Z,5.20
2019-05-19T17:15:07.100Z,1.93
2019-05-19T17:17:36.153Z,2.07
2019-05-19T17:20:06.249Z,3.23
2019-05-19T17:22:35.137Z,4.93
2019-05-19T17:25:04.802Z,4.37
2019-05-19T17:27:33.740Z,2.20
2019-05-19T17:30:03.100Z,2.27
2019-05-19T17:32:32.067Z,2.50
2019-05-19T17:35:01.164Z,2.90
2019-05-19T17:37:30.063Z,2.70
2019-05-19T17:39:59.010Z,2.90
2019-05-19T17:42:27.910Z,4.00
2019-05-19T17:44:56.815Z,2.90
2019-05-19T17:47:25.702Z,3.33
2019-05-19T17:49:54.612Z,4.20
2019-05-19T17:52:23.502Z,3.33
2019-05-19T17:54:52.384Z,2.97
2019-05-19T17:57:21.388Z,3.50
2019-05-19T17:59:50.475Z,3.73
2019-05-19T18:02:19.432Z,3.73
2019-05-19T18:04:48.350Z,3.90
2019-05-19T18:07:17.336Z,5.27
2019-05-19T18:09:46.296Z,5.53
2019-05-19T18:12:15.218Z,6.30
2019-05-19T18:14:44.110Z,6.50
2019-05-19T18:17:13.970Z,4.97
2019-05-19T18:19:42.901Z,4.43
2019-05-19T18:22:11.784Z,4.87
2019-05-19T18:24:40.747Z,4.63
2019-05-19T18:27:09.724Z,4.57
2019-05-19T18:29:38.723Z,4.53
2019-05-19T18:32:07.699Z,5.77
2019-05-19T18:34:36.742Z,7.00
2019-05-19T18:37:05.634Z,6.03
2019-05-19T18:39:34.600Z,4.37
2019-05-19T18:42:03.558Z,4.80
2019-05-19T18:44:32.462Z,6.17
2019-05-19T18:47:01.344Z,6.40
2019-05-19T18:49:31.779Z,3.73
2019-05-19T18:52:00.699Z,3.70
2019-05-19T18:54:29.598Z,6.67
2019-05-19T18:56:58.517Z,3.83
2019-05-19T18:59:27.404Z,5.80
2019-05-19T19:01:56.375Z,4.97
2019-05-19T19:04:25.276Z,3.93
2019-05-19T19:06:54.164Z,2.57
2019-05-19T19:09:23.061Z,3.50
2019-05-19T19:11:51.965Z,6.27
2019-05-19T19:14:20.860Z,2.17
2019-05-19T19:16:49.742Z,4.80
2019-05-19T19:19:18.690Z,3.13
2019-05-19T19:21:47.588Z,5.23
2019-05-19T19:24:16.550Z,3.80
2019-05-19T19:26:45.473Z,1.73
2019-05-19T19:29:14.381Z,2.63
2019-05-19T19:31:48.574Z,3.40
2019-05-19T19:34:13.901Z,9.03
2019-05-19T19:36:43.759Z,6.60
2019-05-19T19:39:12.724Z,5.63
2019-05-19T19:41:41.725Z,4.10
2019-05-19T19:44:10.610Z,4.80
2019-05-19T19:46:39.500Z,5.63
2019-05-19T19:49:08.441Z,2.67
2019-05-19T19:51:37.321Z,2.00
2019-05-19T19:54:06.288Z,2.57
2019-05-19T19:56:35.207Z,2.87
2019-05-19T19:59:04.173Z,5.07
2019-05-19T20:01:33.071Z,2.50
2019-05-19T20:04:01.970Z,3.97
2019-05-19T20:06:30.864Z,4.63
2019-05-19T20:08:59.879Z,4.10
2019-05-19T20:11:28.763Z,3.73
2019-05-19T20:13:57.656Z,3.77
2019-05-19T20:16:26.579Z,6.50
2019-05-19T20:18:55.473Z,3.63
2019-05-19T20:21:24.386Z,2.97
2019-05-19T20:23:53.288Z,3.90
2019-05-19T20:26:22.173Z,5.10
2019-05-19T20:28:51.140Z,3.20
2019-05-19T20:31:20.060Z,4.37
2019-05-19T20:33:48.958Z,4.33
2019-05-19T20:36:17.853Z,3.83
2019-05-19T20:38:46.843Z,6.37
2019-05-19T20:41:15.740Z,5.40
2019-05-19T20:43:44.684Z,3.87
2019-05-19T20:46:13.576Z,3.63
2019-05-19T20:48:42.460Z,5.03
2019-05-19T20:51:11.389Z,5.77
2019-05-19T20:53:40.334Z,3.20
2019-05-19T20:56:09.222Z,2.40
2019-05-19T20:58:38.170Z,2.87
2019-05-19T21:01:07.201Z,3.67
2019-05-19T21:03:36.101Z,5.47
2019-05-19T21:06:05.096Z,3.97
2019-05-19T21:08:33.985Z,2.60
2019-05-19T21:11:02.887Z,5.37
2019-05-19T21:13:31.815Z,3.07
2019-05-19T21:16:00.698Z,2.87
2019-05-19T21:18:29.592Z,4.90
2019-05-19T21:20:58.576Z,4.23
2019-05-19T21:23:27.466Z,4.83
2019-05-19T21:25:56.419Z,4.47
2019-05-19T21:28:25.420Z,5.17
2019-05-19T21:31:05.390Z,3.10
2019-05-19T21:33:24.898Z,3.50
2019-05-19T21:35:53.835Z,2.60
2019-05-19T21:38:22.725Z,5.70
2019-05-19T21:40:51.622Z,3.30
2019-05-19T21:43:20.553Z,3.80
2019-05-19T21:45:49.438Z,9.97
2019-05-19T21:48:19.994Z,3.53
2019-05-19T21:50:48.885Z,6.07
2019-05-19T21:53:17.789Z,6.43
2019-05-19T21:55:46.674Z,6.03
2019-05-19T21:58:15.735Z,5.57
2019-05-19T22:00:44.855Z,6.30
2019-05-19T22:03:13.922Z,6.10
2019-05-19T22:05:52.814Z,4.40
2019-05-19T22:08:15.190Z,3.93
2019-05-19T22:10:44.090Z,6.60
2019-05-19T22:13:13.037Z,3.83
2019-05-19T22:15:41.999Z,5.60
2019-05-19T22:18:10.939Z,9.57
2019-05-19T22:20:39.882Z,5.03
2019-05-19T22:23:08.970Z,4.10
2019-05-19T22:25:37.932Z,4.40
2019-05-19T22:28:06.829Z,4.97
2019-05-19T22:30:35.719Z,5.47
2019-05-19T22:33:04.629Z,3.90
2019-05-19T22:35:33.520Z,3.77
2019-05-19T22:38:02.403Z,4.83
2019-05-19T22:40:31.381Z,5.43
2019-05-19T22:43:00.269Z,3.80
2019-05-19T22:45:29.153Z,4.13
2019-05-19T22:47:58.180Z,4.43
2019-05-19T22:50:27.083Z,4.40
2019-05-19T22:52:56.992Z,4.90
2019-05-19T22:55:25.871Z,6.10
2019-05-19T22:57:54.772Z,4.33
2019-05-19T23:00:24.880Z,6.67
2019-05-19T23:02:53.840Z,4.20
2019-05-19T23:05:22.740Z,8.00
2019-05-19T23:07:51.668Z,5.83
2019-05-19T23:10:20.700Z,5.73
2019-05-19T23:12:50.657Z,4.43
2019-05-19T23:15:19.995Z,4.30
2019-05-19T23:17:48.882Z,4.23
2019-05-19T23:20:17.893Z,5.40
2019-05-19T23:22:46.854Z,5.20
2019-05-19T23:25:15.811Z,6.00
2019-05-19T23:27:44.714Z,4.90
2019-05-19T23:30:13.713Z,4.80
2019-05-19T23:32:42.742Z,5.00
2019-05-19T23:35:11.799Z,4.50
2019-05-19T23:37:40.702Z,4.70
2019-05-19T23:40:09.853Z,4.03
2019-05-19T23:42:38.836Z,5.73
2019-05-19T23:45:07.789Z,4.63
2019-05-19T23:47:36.682Z,5.33
2019-05-19T23:50:06.160Z,5.17
2019-05-19T23:52:35.046Z,4.97
2019-05-19T23:55:06.895Z,5.10
2019-05-19T23:57:35.801Z,5.10
